Terminal Aerodrome Forecast
Issued by NWS Glasgow, MT

Home | Current Version | Previous Version | Text Only | Print | Product List | Glossary On
Versions: 1 2 3 4 5 6 7 8 9 10 11 12 13
963
FTUS45 KGGW 262327
TAFGGW
TAF
KGGW 262327Z 2700/2724 29012KT P6SM SKC
     FM270500 VRB06KT P6SM SKC
     FM271500 11011KT P6SM SKC=

USA.gov is the U.S. government's official web portal to all federal, state and local government web resources and services.